Strona główna
METAR-TAF:

METAR-TAF

Lotnisko :

Washington, Pensylwania, Stany Zjednoczone

Szerokość geograficzna: 40-08N, Długość geograficzna: 080-17W, wysokość: 361 m

Aktualna obserwacja pogody

Raport powstał 34 minut temu, godzina 14:56 UTC
Cisza
Temperatura 24°C
Wilgotność 78%
Ciśnienie 1014 hPa
Widzialność: 16.1 km
Mało chmury na wysokości 5500 ft
Rozproszone chmury na wysokości 7500 ft

METAR: KAFJ 041456Z AUTO 00000KT 10SM FEW055 SCT075 24/20 A2995 RMK AO2 RAB33E44 SLP132 P0000 60000 T02390200 53007

czas: 11:30 (15:30 UTC)


TAF: brakujący

Obserwacja i prognoza pogody dla ponad 4000 lotnisk (raport METAR i TAF).

Dostępne stacje oznaczono żółtymi i czerwonymi punktami na mapie.

Najedź kursorem aby zobaczyć nazwę stacji.

Kliknij aby zobaczyć obserwacje i prognozy pogody.

Aby zmienić mapę: kliknij na zielony przycisk z czarnym krzyżykiem, aby powiększyć; na zielony przycisk z myślnikiem, aby pomniejszyć; na zielone strzałki, aby przejść do map sąsiednich.


METAR-TAF: